Time;durP1;ratioP1;P1;durP2;ratioP2;P2;SDS_P1;SDS_P2;PMS_P1;PMS_P2;Temp;Humidity;BMP_temperature;BMP_pressure;BME280_temperature;BME280_humidity;BME280_pressure;Samples;Min_cycle;Max_cycle;Signal;HPM_P1;HPM_P2
2022/11/01 00:02:05;;;;;;;10.60;1.43;;;;;;;;;;5015225;28;20201;-60
2022/11/01 00:04:31;;;;;;;8.60;1.37;;;;;;;;;;5032856;28;20178;-61
2022/11/01 00:06:57;;;;;;;8.67;1.80;;;;;;;;;;5031469;28;20174;-59
2022/11/01 00:09:23;;;;;;;12.20;1.40;;;;;;;;;;5032535;28;20185;-60
2022/11/01 00:11:49;;;;;;;19.47;2.13;;;;;;;;;;5032205;28;20182;-60
2022/11/01 00:14:18;;;;;;;11.63;1.73;;;12.10;99.90;;;;;;5032831;28;20223;-60
2022/11/01 00:16:44;;;;;;;11.50;1.37;;;;;;;;;;5032344;28;20631;-59
2022/11/01 00:19:10;;;;;;;14.97;1.90;;;;;;;;;;5014784;28;20630;-59
2022/11/01 00:21:37;;;;;;;15.03;1.40;;;;;;;;;;5032690;28;20166;-59
2022/11/01 00:24:03;;;;;;;17.80;1.90;;;;;;;;;;5032636;28;20189;-59
2022/11/01 00:26:29;;;;;;;15.23;2.30;;;;;;;;;;5032227;28;20244;-59
2022/11/01 00:28:55;;;;;;;15.23;2.13;;;;;;;;;;5032262;28;20181;-60
2022/11/01 00:31:21;;;;;;;11.43;1.43;;;;;;;;;;5032154;28;20182;-60
2022/11/01 00:33:47;;;;;;;20.30;2.07;;;;;;;;;;5031395;28;20513;-59
2022/11/01 00:36:14;;;;;;;13.37;1.67;;;12.30;99.90;;;;;;5019922;28;20215;-59
2022/11/01 00:38:40;;;;;;;17.20;1.93;;;;;;;;;;5032321;28;20205;-59
2022/11/01 00:41:06;;;;;;;15.37;1.47;;;;;;;;;;5031758;28;20204;-60
2022/11/01 00:43:33;;;;;;;13.23;1.67;;;;;;;;;;5024877;28;20239;-59
2022/11/01 00:46:00;;;;;;;8.80;1.43;;;;;;;;;;5032179;28;20181;-60
2022/11/01 00:48:26;;;;;;;8.50;0.80;;;;;;;;;;5031666;28;20178;-60
2022/11/01 00:50:52;;;;;;;7.60;1.10;;;;;;;;;;5031820;28;20315;-60
2022/11/01 00:53:18;;;;;;;8.57;1.23;;;;;;;;;;5030848;28;20719;-59
2022/11/01 00:55:44;;;;;;;8.40;1.10;;;;;;;;;;5031084;28;20248;-59
2022/11/01 00:58:10;;;;;;;8.07;1.23;;;;;;;;;;5031813;28;20205;-59
2022/11/01 01:00:37;;;;;;;10.83;1.10;;;;;;;;;;5031591;28;20228;-60
2022/11/01 01:03:04;;;;;;;5.17;0.80;;;12.70;99.90;;;;;;5031894;28;20192;-59
2022/11/01 01:05:30;;;;;;;13.10;1.40;;;;;;;;;;5031830;28;20217;-59
2022/11/01 01:07:56;;;;;;;8.40;1.30;;;;;;;;;;5031795;28;20197;-59
2022/11/01 01:10:22;;;;;;;8.23;1.17;;;;;;;;;;5031607;28;20184;-59
2022/11/01 01:12:48;;;;;;;5.30;0.77;;;;;;;;;;5031691;28;20174;-60
2022/11/01 01:15:14;;;;;;;6.63;1.00;;;;;;;;;;5031767;28;20181;-59
2022/11/01 01:17:40;;;;;;;6.87;1.13;;;;;;;;;;5031418;28;20632;-57
2022/11/01 01:20:06;;;;;;;20.67;2.53;;;;;;;;;;5031130;28;20210;-57
2022/11/01 01:22:32;;;;;;;12.03;1.97;;;;;;;;;;5031368;28;20178;-57
2022/11/01 01:24:58;;;;;;;11.43;1.57;;;;;;;;;;5031549;28;20315;-59
2022/11/01 01:27:25;;;;;;;19.80;1.80;;;;;;;;;;5031175;28;20174;-58
2022/11/01 01:29:51;;;;;;;16.23;2.30;;;;;;;;;;5031195;28;20182;-59
2022/11/01 01:32:19;;;;;;;23.57;2.30;;;;;;;;;;5031585;28;20180;-59
2022/11/01 01:34:45;;;;;;;23.50;2.33;;;;;;;;;;5031331;28;20185;-59
2022/11/01 01:37:12;;;;;;;23.27;2.60;;;;;;;;;;5030804;28;20177;-59
2022/11/01 01:39:38;;;;;;;24.30;2.87;;;;;;;;;;5023808;28;20221;-59
2022/11/01 01:42:26;;;;;;;34.40;4.50;;;12.60;99.90;;;;;;5031149;28;20257;-59
2022/11/01 01:44:53;;;;;;;18.33;2.57;;;;;;;;;;5022200;28;20186;-60
2022/11/01 01:47:21;;;;;;;36.73;4.90;;;;;;;;;;5027476;28;20589;-59
2022/11/01 01:49:50;;;;;;;22.53;2.57;;;12.50;99.90;;;;;;5031034;28;20191;-59
2022/11/01 01:52:16;;;;;;;30.13;3.70;;;;;;;;;;5031010;28;20182;-60
2022/11/01 01:54:42;;;;;;;14.97;2.20;;;;;;;;;;5030548;28;20628;-60
2022/11/01 01:57:08;;;;;;;30.50;3.77;;;;;;;;;;5030744;28;20300;-60
2022/11/01 01:59:35;;;;;;;29.63;4.33;;;;;;;;;;5030346;28;20220;-60
2022/11/01 02:02:01;;;;;;;25.30;2.80;;;;;;;;;;5025883;28;20186;-59
2022/11/01 02:04:32;;;;;;;13.93;1.97;;;;;;;;;;5027046;28;20192;-59
2022/11/01 02:06:59;;;;;;;17.97;2.23;;;;;;;;;;5030683;28;20177;-59
2022/11/01 02:09:25;;;;;;;14.73;2.03;;;;;;;;;;5030610;28;20235;-59
2022/11/01 02:11:51;;;;;;;19.40;2.33;;;;;;;;;;5030542;28;20227;-59
2022/11/01 02:14:20;;;;;;;24.43;2.93;;;12.40;99.90;;;;;;5030250;28;20178;-59
2022/11/01 02:16:49;;;;;;;26.47;3.37;;;;;;;;;;5030841;28;20189;-59
2022/11/01 02:19:31;;;;;;;25.57;2.90;;;;;;;;;;5030602;28;20292;-60
2022/11/01 02:22:01;;;;;;;20.67;2.83;;;;;;;;;;5030764;28;20178;-59
2022/11/01 02:24:36;;;;;;;22.53;3.70;;;;;;;;;;5030394;28;20315;-60
2022/11/01 02:27:23;;;;;;;26.43;2.53;;;12.50;99.90;;;;;;5030395;28;20177;-59
2022/11/01 02:30:17;;;;;;;12.53;1.90;;;12.50;99.90;;;;;;5030639;28;20177;-59
2022/11/01 02:33:02;;;;;;;18.87;2.33;;;;;;;;;;5025402;28;20181;-59
2022/11/01 02:35:28;;;;;;;16.70;2.03;;;;;;;;;;5031206;28;20232;-59
2022/11/01 02:38:04;;;;;;;24.63;2.97;;;;;;;;;;5031184;28;20204;-59
2022/11/01 02:40:45;;;;;;;19.27;2.83;;;;;;;;;;5020474;28;20189;-60
2022/11/01 02:43:17;;;;;;;18.27;3.13;;;;;;;;;;5034420;28;20220;-61
2022/11/01 02:45:49;;;;;;;27.43;3.27;;;12.70;99.90;;;;;;5034743;28;20529;-60
2022/11/01 02:48:19;;;;;;;19.40;2.50;;;12.70;99.90;;;;;;5019046;28;20181;-61
2022/11/01 02:50:47;;;;;;;20.47;2.93;;;;;;;;;;5034082;28;20162;-60
2022/11/01 02:53:13;;;;;;;24.27;2.77;;;;;;;;;;5033931;28;20182;-61
2022/11/01 02:55:39;;;;;;;34.27;3.67;;;;;;;;;;5033682;28;20236;-60
2022/11/01 02:58:11;;;;;;;25.13;3.20;;;12.90;99.90;;;;;;5033537;28;20201;-60
2022/11/01 03:00:38;;;;;;;25.77;3.70;;;;;;;;;;5033598;28;20236;-60
2022/11/01 03:03:11;;;;;;;27.93;3.60;;;;;;;;;;5034039;28;20174;-60
2022/11/01 03:05:52;;;;;;;20.80;2.67;;;;;;;;;;5033961;28;20209;-60
2022/11/01 03:08:21;;;;;;;21.93;2.97;;;;;;;;;;5034052;28;20572;-60
2022/11/01 03:10:59;;;;;;;23.77;2.63;;;;;;;;;;5033979;28;20228;-60
2022/11/01 03:13:28;;;;;;;28.20;3.60;;;;;;;;;;5033340;28;20212;-59
2022/11/01 03:16:00;;;;;;;22.17;3.07;;;;;;;;;;5033423;28;20198;-59
2022/11/01 03:18:31;;;;;;;16.70;2.67;;;13.50;99.90;;;;;;5033222;28;20703;-60
2022/11/01 03:21:24;;;;;;;20.70;2.97;;;;;;;;;;5033334;28;20177;-61
2022/11/01 03:24:03;;;;;;;27.20;3.77;;;;;;;;;;5028559;28;20185;-60
2022/11/01 03:26:31;;;;;;;23.83;2.97;;;;;;;;;;5031929;28;20192;-61
2022/11/01 03:28:59;;;;;;;24.30;3.00;;;;;;;;;;5032875;28;20182;-61
2022/11/01 03:31:28;;;;;;;24.10;3.30;;;;;;;;;;5026584;28;20228;-61
2022/11/01 03:33:56;;;;;;;24.33;2.77;;;;;;;;;;5032866;28;20177;-60
2022/11/01 03:36:24;;;;;;;22.77;2.83;;;;;;;;;;5026463;28;20667;-60
2022/11/01 03:38:58;;;;;;;18.43;2.30;;;;;;;;;;5025552;28;20643;-61
2022/11/01 03:41:26;;;;;;;18.13;2.70;;;13.40;99.90;;;;;;5021906;28;20662;-60
2022/11/01 03:43:53;;;;;;;29.13;3.17;;;;;;;;;;5032652;28;20185;-61
2022/11/01 03:46:19;;;;;;;19.97;3.17;;;;;;;;;;5033330;28;20176;-61
2022/11/01 03:48:45;;;;;;;16.27;2.20;;;;;;;;;;5033118;28;20291;-61
2022/11/01 03:51:12;;;;;;;11.23;1.90;;;;;;;;;;5033246;28;20209;-61
2022/11/01 03:53:38;;;;;;;18.97;2.57;;;;;;;;;;5032524;28;20269;-60
2022/11/01 03:56:04;;;;;;;14.40;2.37;;;;;;;;;;5032646;28;20221;-61
2022/11/01 03:58:44;;;;;;;26.63;2.97;;;;;;;;;;5032894;28;20209;-61
2022/11/01 04:01:11;;;;;;;19.70;2.80;;;;;;;;;;5032218;28;20174;-61
2022/11/01 04:03:37;;;;;;;17.60;2.40;;;;;;;;;;5032902;28;20170;-60
2022/11/01 04:06:03;;;;;;;25.53;3.23;;;;;;;;;;5032887;28;20174;-61
2022/11/01 04:08:30;;;;;;;18.60;2.50;;;13.10;99.90;;;;;;5032837;28;20192;-60
2022/11/01 04:10:56;;;;;;;24.63;2.40;;;;;;;;;;5032954;28;20206;-61
2022/11/01 04:13:22;;;;;;;22.70;2.70;;;;;;;;;;5032579;28;20173;-61
2022/11/01 04:21:19;;;;;;;10.70;2.37;;;;;;;;;;5032291;28;20196;-60
2022/11/01 04:23:45;;;;;;;19.13;2.33;;;;;;;;;;5032407;28;20251;-60
2022/11/01 04:26:12;;;;;;;14.17;2.20;;;;;;;;;;5025760;28;20766;-60
2022/11/01 04:28:38;;;;;;;18.70;2.23;;;;;;;;;;5032104;28;20261;-60
2022/11/01 04:31:05;;;;;;;16.27;2.73;;;;;;;;;;5031434;28;20209;-60
2022/11/01 04:33:31;;;;;;;21.90;2.37;;;;;;;;;;5026385;28;20185;-60
2022/11/01 04:35:57;;;;;;;17.87;2.10;;;;;;;;;;5032403;28;20178;-61
2022/11/01 04:38:23;;;;;;;17.47;2.27;;;;;;;;;;5031865;28;20201;-62
2022/11/01 04:40:49;;;;;;;20.27;2.67;;;;;;;;;;5032494;28;20244;-60
2022/11/01 04:43:15;;;;;;;18.33;2.53;;;;;;;;;;5032431;28;20641;-60
2022/11/01 04:45:41;;;;;;;17.90;3.17;;;;;;;;;;5032337;28;20177;-60
2022/11/01 04:48:08;;;;;;;16.10;2.20;;;;;;;;;;5032288;28;20182;-60
2022/11/01 04:50:34;;;;;;;27.10;2.97;;;;;;;;;;5031621;28;20181;-60
2022/11/01 04:53:01;;;;;;;19.90;2.50;;;;;;;;;;5031069;28;20253;-60
2022/11/01 04:55:27;;;;;;;14.40;2.70;;;;;;;;;;5031929;28;20703;-60
2022/11/01 04:57:53;;;;;;;19.43;2.50;;;;;;;;;;5031227;28;20206;-60
2022/11/01 05:00:21;;;;;;;24.97;2.67;;;;;;;;;;5030941;28;20214;-60
2022/11/01 05:02:48;;;;;;;27.37;2.50;;;;;;;;;;5031998;28;20235;-60
2022/11/01 05:05:14;;;;;;;17.67;2.30;;;;;;;;;;5016038;28;20186;-60
2022/11/01 05:07:40;;;;;;;16.67;2.83;;;;;;;;;;5000542;28;20530;-60
2022/11/01 05:10:07;;;;;;;23.40;3.33;;;12.80;99.90;;;;;;5032043;28;20177;-60
2022/11/01 05:12:33;;;;;;;28.93;3.10;;;;;;;;;;5031738;28;20189;-60
2022/11/01 05:14:59;;;;;;;14.53;2.27;;;;;;;;;;5031559;28;20182;-60
2022/11/01 05:17:25;;;;;;;20.53;3.00;;;;;;;;;;5031186;28;20243;-60
2022/11/01 05:19:51;;;;;;;16.63;2.47;;;;;;;;;;5030808;28;20672;-60
2022/11/01 05:22:17;;;;;;;22.47;3.53;;;;;;;;;;5031631;28;20260;-60
2022/11/01 05:24:43;;;;;;;20.80;2.80;;;;;;;;;;5024010;28;20206;-61
2022/11/01 05:27:09;;;;;;;28.60;2.83;;;;;;;;;;5029855;28;20177;-60
2022/11/01 05:29:36;;;;;;;23.90;3.13;;;;;;;;;;5021248;28;20193;-60
2022/11/01 05:32:02;;;;;;;29.10;3.07;;;;;;;;;;5018985;28;20237;-60
2022/11/01 05:34:28;;;;;;;24.73;3.40;;;;;;;;;;5011788;28;20178;-60
2022/11/01 05:36:54;;;;;;;22.20;2.60;;;;;;;;;;5011583;28;20162;-60
2022/11/01 05:39:20;;;;;;;22.70;2.37;;;;;;;;;;5030978;28;20251;-60
2022/11/01 05:41:46;;;;;;;24.60;2.70;;;;;;;;;;5029742;28;20625;-60
2022/11/01 05:44:12;;;;;;;17.87;2.13;;;;;;;;;;5031201;28;20205;-60
2022/11/01 05:46:38;;;;;;;24.50;2.30;;;;;;;;;;5031016;28;20236;-60
2022/11/01 05:49:04;;;;;;;22.03;3.17;;;;;;;;;;5031157;28;20178;-60
2022/11/01 05:51:30;;;;;;;21.60;3.47;;;;;;;;;;5030715;28;20188;-60
2022/11/01 05:53:56;;;;;;;16.93;2.43;;;;;;;;;;5023744;28;20257;-59
2022/11/01 05:56:22;;;;;;;20.50;2.70;;;;;;;;;;5030669;28;20224;-60
2022/11/01 05:58:48;;;;;;;17.23;2.20;;;;;;;;;;5030972;28;20217;-60
2022/11/01 06:01:16;;;;;;;17.77;2.43;;;;;;;;;;5030470;28;20192;-61
2022/11/01 06:03:42;;;;;;;15.20;2.40;;;;;;;;;;5030364;28;20232;-61
2022/11/01 06:06:09;;;;;;;16.63;2.30;;;13.30;99.90;;;;;;5030518;28;20178;-61
2022/11/01 06:08:35;;;;;;;9.90;2.30;;;;;;;;;;5030175;28;20202;-60
2022/11/01 06:11:02;;;;;;;15.10;2.30;;;;;;;;;;5030476;28;20178;-60
2022/11/01 06:13:28;;;;;;;11.43;1.80;;;;;;;;;;5031030;28;20174;-61
2022/11/01 06:16:01;;;;;;;18.67;2.20;;;;;;;;;;5031050;28;20628;-60
2022/11/01 06:18:27;;;;;;;14.00;2.23;;;;;;;;;;5030474;28;20676;-62
2022/11/01 06:20:53;;;;;;;9.10;1.30;;;;;;;;;;5023363;28;20205;-60
2022/11/01 06:23:19;;;;;;;12.20;1.93;;;;;;;;;;5030810;28;20174;-61
2022/11/01 06:25:45;;;;;;;10.63;1.40;;;;;;;;;;5030587;28;20190;-59
2022/11/01 06:28:11;;;;;;;11.37;1.63;;;;;;;;;;5029487;28;20214;-59
2022/11/01 06:30:38;;;;;;;20.87;2.37;;;;;;;;;;5030669;28;20178;-60
2022/11/01 06:33:05;;;;;;;15.20;2.10;;;;;;;;;;5030610;28;20201;-59
2022/11/01 06:35:31;;;;;;;16.60;2.70;;;;;;;;;;5030724;28;20217;-59
2022/11/01 06:38:01;;;;;;;8.53;1.60;;;;;;;;;;5030626;28;20174;-59
2022/11/01 06:40:27;;;;;;;11.53;2.00;;;;;;;;;;5030557;28;20220;-59
2022/11/01 06:42:58;;;;;;;12.80;2.07;;;13.60;99.90;;;;;;5030811;28;20170;-59
2022/11/01 06:45:24;;;;;;;12.33;1.97;;;;;;;;;;5030724;28;20190;-59
2022/11/01 06:47:50;;;;;;;5.97;1.23;;;;;;;;;;5030669;28;20177;-60
2022/11/01 06:50:16;;;;;;;7.10;0.97;;;;;;;;;;5030485;28;20170;-59
2022/11/01 06:52:42;;;;;;;9.40;1.53;;;;;;;;;;5030447;28;20537;-61
2022/11/01 06:55:08;;;;;;;13.10;1.63;;;;;;;;;;5030461;28;20174;-61
2022/11/01 06:57:34;;;;;;;8.53;1.60;;;;;;;;;;5030581;28;20181;-61
2022/11/01 07:00:00;;;;;;;12.30;1.90;;;;;;;;;;5030640;28;20217;-61
2022/11/01 07:02:26;;;;;;;15.87;2.17;;;;;;;;;;5030619;28;20200;-62
2022/11/01 07:04:52;;;;;;;7.20;1.03;;;;;;;;;;5030604;28;20636;-60
2022/11/01 07:07:18;;;;;;;4.83;1.00;;;;;;;;;;5030438;28;20170;-60
2022/11/01 07:09:44;;;;;;;9.40;1.57;;;;;;;;;;5025596;28;20166;-60
2022/11/01 07:12:10;;;;;;;6.80;1.23;;;;;;;;;;5030189;28;20269;-61
2022/11/01 07:14:36;;;;;;;8.13;1.70;;;;;;;;;;5027435;28;20800;-60
2022/11/01 07:17:02;;;;;;;7.30;1.10;;;;;;;;;;5028009;28;20197;-60
2022/11/01 07:19:28;;;;;;;6.57;1.30;;;;;;;;;;5034185;28;20206;-60
2022/11/01 07:21:55;;;;;;;10.00;1.17;;;;;;;;;;5030165;28;20175;-60
2022/11/01 07:24:21;;;;;;;6.27;1.37;;;;;;;;;;5020747;28;20684;-61
2022/11/01 07:26:47;;;;;;;3.97;1.10;;;;;;;;;;5033733;28;20649;-64
2022/11/01 07:29:13;;;;;;;7.97;0.83;;;;;;;;;;5033834;28;20276;-65
2022/11/01 07:31:39;;;;;;;5.67;1.20;;;;;;;;;;5033712;28;20276;-65
2022/11/01 07:34:05;;;;;;;8.30;1.30;;;;;;;;;;5033651;28;20177;-65
2022/11/01 07:36:31;;;;;;;6.33;1.07;;;;;;;;;;5030853;28;20177;-64
2022/11/01 07:38:57;;;;;;;14.27;1.53;;;;;;;;;;5032856;28;20680;-62
2022/11/01 07:41:24;;;;;;;8.53;1.50;;;;;;;;;;5033345;28;20354;-61
2022/11/01 07:43:50;;;;;;;10.50;1.13;;;;;;;;;;5032361;28;20656;-65
2022/11/01 07:46:16;;;;;;;13.37;1.57;;;;;;;;;;5032437;28;20178;-63
2022/11/01 07:48:42;;;;;;;6.63;1.50;;;;;;;;;;5031833;28;20185;-64
2022/11/01 07:51:08;;;;;;;4.80;1.70;;;;;;;;;;5033326;28;20261;-64
2022/11/01 07:53:34;;;;;;;7.00;1.00;;;;;;;;;;5033430;28;20178;-63
2022/11/01 07:56:01;;;;;;;8.90;1.33;;;;;;;;;;5033138;28;20214;-63
2022/11/01 07:58:27;;;;;;;7.03;1.27;;;;;;;;;;5033260;28;20611;-63
2022/11/01 08:00:53;;;;;;;4.83;1.10;;;;;;;;;;5018794;28;20217;-62
2022/11/01 08:03:19;;;;;;;11.10;1.27;;;;;;;;;;5013513;28;20181;-62
2022/11/01 08:05:47;;;;;;;8.33;1.27;;;;;;;;;;5013415;28;20540;-62
2022/11/01 08:08:13;;;;;;;8.37;1.13;;;;;;;;;;5013337;28;20213;-62
2022/11/01 08:10:41;;;;;;;7.03;1.00;;;;;;;;;;5028386;28;20239;-62
2022/11/01 08:13:18;;;;;;;7.60;1.57;;;13.10;99.90;;;;;;5030603;28;20166;-62
2022/11/01 08:15:45;;;;;;;8.80;1.40;;;13.10;99.90;;;;;;5012737;28;20225;-62
2022/11/01 08:18:11;;;;;;;11.43;1.63;;;;;;;;;;5012812;28;20201;-63
2022/11/01 08:20:37;;;;;;;7.53;1.27;;;;;;;;;;5032838;28;20166;-63
2022/11/01 08:23:04;;;;;;;8.17;1.20;;;13.10;99.90;;;;;;5033093;28;20253;-63
2022/11/01 08:25:30;;;;;;;5.17;0.87;;;;;;;;;;5031811;28;20193;-64
2022/11/01 08:28:01;;;;;;;8.13;1.00;;;13.00;99.90;;;;;;5030836;28;20292;-65
2022/11/01 08:30:27;;;;;;;10.90;1.50;;;13.30;99.90;;;;;;5032149;28;20174;-63
2022/11/01 08:33:03;;;;;;;7.73;1.07;;;;;;;;;;5032211;28;20189;-63
2022/11/01 08:35:30;;;;;;;6.87;1.20;;;13.10;99.90;;;;;;5032269;28;20185;-61
2022/11/01 08:37:57;;;;;;;7.10;0.87;;;;;;;;;;5032744;28;20288;-62
2022/11/01 08:40:24;;;;;;;7.87;0.93;;;;;;;;;;5032266;28;20247;-62
2022/11/01 08:42:50;;;;;;;5.90;1.23;;;;;;;;;;5031957;28;20177;-62
2022/11/01 08:45:16;;;;;;;9.23;1.37;;;13.50;99.90;;;;;;5032216;28;20166;-62
2022/11/01 08:47:42;;;;;;;5.37;1.23;;;;;;;;;;5032148;28;20209;-62
2022/11/01 08:50:09;;;;;;;8.47;0.83;;;;;;;;;;5032116;28;20177;-62
2022/11/01 08:52:36;;;;;;;7.83;0.97;;;;;;;;;;5032162;28;20224;-62
2022/11/01 08:55:03;;;;;;;7.13;1.20;;;;;;;;;;5031879;28;20263;-62
2022/11/01 08:57:30;;;;;;;3.40;0.73;;;;;;;;;;5030020;28;20265;-62
2022/11/01 08:59:56;;;;;;;10.63;1.40;;;;;;;;;;5012336;28;20218;-62
2022/11/01 09:02:22;;;;;;;10.07;1.20;;;;;;;;;;5022764;28;20188;-62
2022/11/01 09:04:48;;;;;;;5.20;1.00;;;;;;;;;;5031849;28;20190;-61
2022/11/01 09:07:14;;;;;;;5.10;1.00;;;;;;;;;;5026554;28;20177;-62
2022/11/01 09:09:40;;;;;;;5.70;1.10;;;;;;;;;;5030823;28;20176;-61
2022/11/01 09:12:06;;;;;;;7.47;1.17;;;;;;;;;;5031535;28;20198;-62
2022/11/01 09:14:33;;;;;;;7.83;1.23;;;;;;;;;;5031308;28;20610;-64
2022/11/01 09:16:59;;;;;;;6.53;0.80;;;;;;;;;;5031319;28;20174;-63
2022/11/01 09:19:25;;;;;;;9.27;1.10;;;;;;;;;;5031481;28;20683;-61
2022/11/01 09:21:51;;;;;;;5.53;0.97;;;;;;;;;;5031798;28;20178;-61
2022/11/01 09:24:17;;;;;;;4.83;1.10;;;;;;;;;;5031630;28;20182;-61
2022/11/01 09:26:43;;;;;;;4.83;0.90;;;;;;;;;;5013904;28;20255;-61
2022/11/01 09:29:10;;;;;;;4.80;0.97;;;;;;;;;;5030883;28;20307;-61
2022/11/01 09:31:36;;;;;;;5.60;0.90;;;;;;;;;;5030979;28;20268;-61
2022/11/01 09:34:02;;;;;;;7.88;1.10;;;15.00;99.90;;;;;;5031578;28;20186;-61
2022/11/01 09:36:29;;;;;;;5.13;0.93;;;;;;;;;;5029287;28;20177;-60
2022/11/01 09:38:58;;;;;;;5.93;0.97;;;;;;;;;;5029691;28;20201;-61
2022/11/01 09:41:32;;;;;;;2.37;0.83;;;;;;;;;;5030794;28;20178;-60
2022/11/01 09:43:59;;;;;;;3.93;1.00;;;;;;;;;;5028061;28;20169;-59
2022/11/01 09:46:30;;;;;;;4.47;1.00;;;14.50;99.90;;;;;;5011662;28;20330;-61
2022/11/01 09:48:57;;;;;;;8.47;1.20;;;;;;;;;;5029505;28;20256;-59
2022/11/01 09:51:24;;;;;;;3.23;1.00;;;;;;;;;;5030465;28;20166;-62
2022/11/01 09:53:53;;;;;;;1.83;0.77;;;14.20;99.90;;;;;;5010332;28;20214;-62
2022/11/01 09:56:23;;;;;;;4.23;0.67;;;;;;;;;;5030643;28;20264;-60
2022/11/01 09:59:27;;;;;;;3.23;0.90;;;;;;;;;;5030872;28;20232;-59
2022/11/01 10:01:56;;;;;;;4.00;0.80;;;;;;;;;;4922365;29;20275;-60
2022/11/01 10:04:22;;;;;;;4.53;0.80;;;;;;;;;;4931529;29;20220;-60
2022/11/01 10:06:56;;;;;;;7.90;1.07;;;;;;;;;;4978521;28;20193;-61
2022/11/01 10:09:46;;;;;;;4.83;1.17;;;;;;;;;;5013235;28;20649;-61
2022/11/01 10:12:47;;;;;;;6.47;1.27;;;;;;;;;;5019562;28;20177;-61
2022/11/01 10:15:19;;;;;;;9.00;1.20;;;;;;;;;;4950414;29;20184;-60
2022/11/01 10:17:52;;;;;;;6.40;1.30;;;;;;;;;;5016148;28;20184;-60
2022/11/01 10:20:20;;;;;;;6.73;1.17;;;;;;;;;;5021951;28;20371;-60
2022/11/01 10:22:48;;;;;;;6.83;0.80;;;;;;;;;;5029702;28;20648;-60
2022/11/01 10:25:14;;;;;;;6.53;1.10;;;;;;;;;;5028534;28;20239;-63
2022/11/01 10:27:52;;;;;;;7.83;1.13;;;;;;;;;;5029911;28;20182;-61
2022/11/01 10:30:19;;;;;;;9.52;1.05;;;;;;;;;;5028999;28;20239;-61
2022/11/01 10:33:02;;;;;;;7.30;1.20;;;;;;;;;;5010852;28;20684;-61
2022/11/01 10:35:39;;;;;;;10.50;1.70;;;;;;;;;;5030153;28;20174;-61
2022/11/01 10:38:32;;;;;;;8.17;1.10;;;;;;;;;;5029966;28;20177;-61
2022/11/01 10:41:02;;;;;;;6.43;1.37;;;;;;;;;;5027738;28;20271;-61
2022/11/01 10:43:29;;;;;;;5.23;1.00;;;;;;;;;;5029335;28;20213;-62
2022/11/01 10:45:57;;;;;;;10.53;1.50;;;;;;;;;;5030732;28;20170;-61
2022/11/01 10:48:32;;;;;;;5.03;1.03;;;14.20;99.90;;;;;;5030024;28;20592;-62
2022/11/01 10:51:02;;;;;;;4.50;1.00;;;14.30;99.90;;;;;;5028150;28;20185;-62
2022/11/01 10:53:32;;;;;;;1.67;0.63;;;14.30;99.90;;;;;;5033699;28;20182;-62
2022/11/01 10:56:01;;;;;;;5.37;1.00;;;;;;;;;;5027570;28;20209;-63
2022/11/01 10:58:33;;;;;;;7.27;0.80;;;;;;;;;;5033531;28;20269;-62
2022/11/01 11:01:01;;;;;;;1.90;0.73;;;;;;;;;;5034134;28;20212;-62
2022/11/01 11:03:29;;;;;;;3.10;0.50;;;;;;;;;;5034407;28;20227;-62
2022/11/01 11:05:58;;;;;;;2.37;0.53;;;;;;;;;;5033673;28;20182;-62
2022/11/01 11:08:24;;;;;;;0.50;0.20;;;;;;;;;;5033595;28;20173;-62
2022/11/01 11:10:50;;;;;;;1.37;0.60;;;;;;;;;;5033896;28;20186;-62
2022/11/01 11:13:19;;;;;;;4.85;0.73;;;;;;;;;;5033462;28;20209;-62
2022/11/01 11:15:59;;;;;;;5.13;0.80;;;;;;;;;;5033289;28;20184;-62
2022/11/01 11:18:29;;;;;;;3.22;0.47;;;15.90;99.90;;;;;;5033144;28;20181;-63
2022/11/01 11:21:00;;;;;;;1.48;0.55;;;15.50;99.90;;;;;;5033635;28;20281;-66
2022/11/01 11:23:32;;;;;;;2.22;0.60;;;;;;;;;;5023801;28;20227;-63
2022/11/01 11:26:05;;;;;;;2.85;0.60;;;;;;;;;;5030678;28;20193;-62
2022/11/01 11:28:33;;;;;;;3.22;0.77;;;;;;;;;;5033689;28;20194;-63
2022/11/01 11:31:13;;;;;;;0.70;0.15;;;;;;;;;;5015917;28;20182;-62
2022/11/01 11:33:47;;;;;;;4.63;0.87;;;;;;;;;;5032468;28;20181;-62
2022/11/01 11:36:14;;;;;;;2.80;0.50;;;;;;;;;;5033546;28;20186;-61
2022/11/01 11:38:44;;;;;;;2.72;0.80;;;;;;;;;;5032845;28;20243;-62
2022/11/01 11:41:12;;;;;;;1.73;0.60;;;14.30;99.90;;;;;;5032887;28;20181;-62
2022/11/01 11:43:40;;;;;;;3.83;0.70;;;;;;;;;;5032955;28;20637;-62
2022/11/01 11:46:07;;;;;;;4.47;0.67;;;;;;;;;;5032872;28;20210;-61
2022/11/01 11:48:44;;;;;;;3.78;0.65;;;14.00;99.90;;;;;;5033117;28;20600;-73
2022/11/01 11:51:10;;;;;;;4.43;0.67;;;;;;;;;;5027910;28;20166;-61
2022/11/01 11:53:36;;;;;;;3.10;0.80;;;;;;;;;;5031314;28;20170;-75
2022/11/01 11:56:08;;;;;;;1.83;0.60;;;14.00;99.90;;;;;;5026653;28;20688;-60
2022/11/01 11:58:34;;;;;;;1.87;0.77;;;;;;;;;;5013152;28;20171;-60
2022/11/01 12:01:05;;;;;;;5.73;0.90;;;;;;;;;;5013285;28;20182;-60
2022/11/01 12:03:44;;;;;;;3.57;0.80;;;;;;;;;;5016324;28;20176;-61
2022/11/01 12:06:10;;;;;;;6.15;1.00;;;;;;;;;;5026438;28;20178;-61
2022/11/01 12:08:47;;;;;;;5.95;0.80;;;;;;;;;;5033087;28;20241;-58
2022/11/01 12:11:14;;;;;;;4.63;1.10;;;;;;;;;;5032587;28;20178;-58
2022/11/01 12:13:44;;;;;;;3.83;1.20;;;24.40;99.90;;;;;;5032267;28;20178;-59
2022/11/01 12:16:15;;;;;;;2.15;0.60;;;;;;;;;;5032383;28;20174;-59
2022/11/01 12:18:52;;;;;;;2.92;0.93;;;;;;;;;;5016928;28;20225;-58
2022/11/01 12:21:38;;;;;;;4.30;0.93;;;;;;;;;;5032169;28;20198;-60
2022/11/01 12:24:06;;;;;;;1.63;0.70;;;;;;;;;;5032127;28;20174;-60
2022/11/01 12:26:34;;;;;;;2.58;0.60;;;;;;;;;;5032324;28;20177;-60
2022/11/01 12:29:13;;;;;;;3.10;0.70;;;;;;;;;;5032624;28;20162;-62
2022/11/01 12:31:41;;;;;;;3.03;1.00;;;;;;;;;;5031166;28;20694;-60
2022/11/01 12:34:25;;;;;;;4.35;0.93;;;;;;;;;;5031862;28;20200;-60
2022/11/01 12:37:14;;;;;;;6.32;1.20;;;;;;;;;;5032380;28;20231;-60
2022/11/01 12:39:49;;;;;;;6.80;0.55;;;;;;;;;;5025531;28;20238;-61
2022/11/01 12:42:27;;;;;;;5.78;0.70;;;14.90;99.90;;;;;;5027824;28;20166;-60
2022/11/01 12:44:56;;;;;;;2.33;0.68;;;;;;;;;;5028014;28;20696;-59
2022/11/01 12:47:25;;;;;;;7.00;1.07;;;;;;;;;;5001965;28;20197;-59
2022/11/01 12:50:02;;;;;;;4.53;0.97;;;;;;;;;;5032039;28;20178;-59
2022/11/01 12:52:36;;;;;;;4.50;1.00;;;;;;;;;;5019809;28;20178;-59
2022/11/01 12:55:05;;;;;;;3.77;0.53;;;;;;;;;;5032146;28;20220;-60
2022/11/01 12:57:31;;;;;;;3.07;0.77;;;;;;;;;;5031755;28;20684;-59
2022/11/01 12:59:58;;;;;;;4.68;1.23;;;;;;;;;;5032310;28;20214;-60
2022/11/01 13:02:33;;;;;;;4.40;1.20;;;;;;;;;;5013779;28;20166;-60
2022/11/01 13:05:14;;;;;;;8.73;1.27;;;14.70;99.90;;;;;;5011579;28;20553;-60
2022/11/01 13:07:40;;;;;;;5.87;0.60;;;;;;;;;;5032156;28;20174;-60
2022/11/01 13:10:21;;;;;;;7.23;1.00;;;;;;;;;;5032006;28;20170;-60
2022/11/01 13:12:57;;;;;;;7.00;0.90;;;;;;;;;;5031178;28;20177;-60
2022/11/01 13:15:28;;;;;;;5.75;1.00;;;;;;;;;;5031165;28;20177;-62
2022/11/01 13:18:22;;;;;;;8.05;1.30;;;15.50;99.90;;;;;;5031866;28;20173;-60
2022/11/01 13:20:49;;;;;;;3.90;0.68;;;;;;;;;;5031665;28;20215;-60
2022/11/01 13:23:20;;;;;;;7.82;1.10;;;15.10;99.90;;;;;;5031593;28;20185;-60
2022/11/01 13:25:57;;;;;;;6.60;1.15;;;;;;;;;;5013966;28;20185;-60
2022/11/01 13:28:24;;;;;;;2.85;0.85;;;;;;;;;;5031039;28;20176;-60
2022/11/01 13:31:11;;;;;;;4.15;0.70;;;15.10;99.90;;;;;;5031613;28;20170;-60
2022/11/01 13:34:07;;;;;;;6.65;1.05;;;15.00;99.90;;;;;;5030869;28;20196;-60
2022/11/01 13:36:39;;;;;;;5.50;1.43;;;;;;;;;;5031489;28;20178;-60
2022/11/01 13:39:05;;;;;;;8.52;1.10;;;;;;;;;;5030913;28;20252;-60
2022/11/01 13:41:36;;;;;;;8.00;1.80;;;;;;;;;;5025656;28;20687;-63
2022/11/01 13:44:09;;;;;;;13.77;1.45;;;;;;;;;;5030254;28;20239;-60
2022/11/01 13:46:49;;;;;;;4.70;1.02;;;;;;;;;;5031275;28;20227;-60
2022/11/01 13:49:22;;;;;;;8.60;1.55;;;16.10;99.90;;;;;;5028368;28;20238;-60
2022/11/01 13:52:12;;;;;;;9.00;1.35;;;16.80;99.90;;;;;;5029169;28;20182;-60
2022/11/01 13:54:56;;;;;;;4.70;1.00;;;;;;;;;;5030675;28;20169;-60
2022/11/01 13:57:25;;;;;;;9.77;1.70;;;17.50;99.90;;;;;;5030477;28;20218;-60
2022/11/01 13:59:55;;;;;;;4.93;0.90;;;;;;;;;;5029408;28;20449;-60
2022/11/01 14:02:24;;;;;;;9.93;1.83;;;;;;;;;;5031177;28;20181;-60
2022/11/01 14:05:01;;;;;;;8.57;1.30;;;;;;;;;;5030415;28;20182;-59
2022/11/01 14:07:37;;;;;;;5.70;0.77;;;;;;;;;;5022791;28;20209;-60
2022/11/01 14:10:23;;;;;;;6.35;1.13;;;;;;;;;;5020366;28;20202;-60
2022/11/01 14:12:55;;;;;;;4.97;1.10;;;;;;;;;;5007405;28;20205;-60
2022/11/01 14:15:26;;;;;;;2.08;0.52;;;;;;;;;;5030771;28;20274;-59
2022/11/01 14:17:55;;;;;;;4.15;1.15;;;;;;;;;;5030810;28;20182;-59
2022/11/01 14:20:27;;;;;;;9.93;1.30;;;;;;;;;;5030621;28;20213;-59
2022/11/01 14:22:54;;;;;;;4.45;0.80;;;;;;;;;;5019882;28;20209;-60
2022/11/01 14:25:23;;;;;;;5.72;1.00;;;;;;;;;;5011901;28;20205;-60
2022/11/01 14:28:09;;;;;;;2.40;0.73;;;;;;;;;;5030713;28;20205;-60
2022/11/01 14:30:40;;;;;;;4.68;0.70;;;;;;;;;;5020215;28;20186;-60
2022/11/01 14:33:13;;;;;;;4.10;0.60;;;14.60;99.90;;;;;;5030694;28;20659;-60
2022/11/01 14:35:42;;;;;;;2.40;0.47;;;;;;;;;;5024453;28;20270;-60
2022/11/01 14:38:17;;;;;;;4.67;1.00;;;;;;;;;;5016390;28;20175;-60